Time;durP1;ratioP1;P1;durP2;ratioP2;P2;SDS_P1;SDS_P2;PMS_P1;PMS_P2;Temp;Humidity;BMP_temperature;BMP_pressure;BME280_temperature;BME280_humidity;BME280_pressure;Samples;Min_cycle;Max_cycle;Signal;HPM_P1;HPM_P2
2023/07/10 00:02:13;;;;;;;3.38;1.58;;;;;;;22.55;54.93;100171.41;10427304;28;20044;-61
2023/07/10 00:07:15;;;;;;;3.03;1.48;;;;;;;22.55;54.79;100160.75;10428054;28;20088;-61
2023/07/10 00:12:20;;;;;;;2.63;1.73;;;;;;;22.58;55.02;100155.06;10420320;28;20717;-62
2023/07/10 00:17:22;;;;;;;5.07;1.48;;;;;;;22.34;55.26;100168.31;10424476;28;20140;-61
2023/07/10 00:22:24;;;;;;;3.95;1.58;;;;;;;22.22;55.51;100166.94;10425334;28;20043;-61
2023/07/10 00:27:27;;;;;;;4.43;1.60;;;;;;;22.03;55.62;100169.84;10440879;28;20053;-61
2023/07/10 00:32:28;;;;;;;4.43;2.08;;;;;;;21.90;56.01;100175.56;10423398;28;20167;-61
2023/07/10 00:37:31;;;;;;;3.83;1.85;;;;;;;21.94;56.35;100161.94;10423607;28;20052;-61
2023/07/10 00:42:33;;;;;;;3.08;1.70;;;;;;;22.01;56.22;100161.13;10424491;28;20052;-61
2023/07/10 00:47:39;;;;;;;6.05;1.90;;;;;;;22.01;56.87;100157.63;10423652;28;20049;-61
2023/07/10 00:52:45;;;;;;;3.03;1.80;;;;;;;22.06;57.09;100158.88;10422935;28;20061;-61
2023/07/10 00:57:52;;;;;;;3.92;1.73;;;;;;;22.33;56.77;100158.63;10424803;28;20053;-61
2023/07/10 01:02:54;;;;;;;4.88;2.00;;;;;;;22.39;56.52;100157.19;10421066;28;20103;-61
2023/07/10 01:07:58;;;;;;;3.05;1.60;;;;;;;22.49;56.46;100156.06;10425599;28;20048;-61
2023/07/10 01:13:00;;;;;;;3.45;2.33;;;;;;;22.36;56.96;100158.34;10424872;28;20081;-61
2023/07/10 01:18:05;;;;;;;4.82;1.80;;;;;;;22.49;56.78;100168.53;10444770;28;20092;-61
2023/07/10 01:23:07;;;;;;;4.15;1.90;;;;;;;22.58;56.78;100172.88;10432575;28;20060;-61
2023/07/10 01:28:16;;;;;;;3.10;1.80;;;;;;;22.48;57.08;100177.50;10432008;28;20041;-61
2023/07/10 01:33:28;;;;;;;4.72;1.88;;;;;;;22.35;57.65;100193.97;10432378;28;20055;-61
2023/07/10 01:38:35;;;;;;;4.80;2.25;;;;;;;21.99;58.31;100187.09;10433217;28;20151;-61
2023/07/10 01:43:37;;;;;;;5.00;2.70;;;;;;;21.85;58.06;100190.34;10432531;28;20045;-61
2023/07/10 01:48:39;;;;;;;3.97;2.05;;;;;;;21.96;57.93;100200.75;10448223;28;20116;-61
2023/07/10 01:53:44;;;;;;;4.85;2.00;;;;;;;21.97;57.91;100191.75;10448380;28;20041;-61
2023/07/10 01:58:46;;;;;;;3.80;2.00;;;;;;;21.94;57.89;100208.06;10430185;28;20051;-61
2023/07/10 02:03:48;;;;;;;3.28;1.98;;;;;;;21.80;58.17;100198.00;10434940;28;20504;-61
2023/07/10 02:08:50;;;;;;;3.70;1.92;;;;;;;21.71;58.24;100201.56;10438685;28;20575;-61
2023/07/10 02:13:52;;;;;;;6.90;2.60;;;;;;;21.73;58.64;100207.56;10433425;28;20060;-61
2023/07/10 02:18:55;;;;;;;7.15;3.25;;;;;;;21.74;59.40;100206.59;10437135;28;20181;-61
2023/07/10 02:23:57;;;;;;;8.35;3.95;;;;;;;22.00;59.43;100211.91;10437623;28;20079;-61
2023/07/10 02:29:01;;;;;;;6.82;3.60;;;;;;;22.29;59.52;100209.78;10437592;28;20049;-61
2023/07/10 02:34:03;;;;;;;7.78;3.95;;;;;;;22.35;59.33;100201.94;10437998;28;20135;-61
2023/07/10 02:39:05;;;;;;;8.48;4.22;;;;;;;22.40;59.34;100190.81;10426075;28;20497;-61
2023/07/10 02:44:07;;;;;;;11.43;4.20;;;;;;;22.48;59.22;100183.69;10437438;28;20500;-61
2023/07/10 02:49:09;;;;;;;12.30;4.90;;;;;;;22.49;59.18;100185.38;10438499;28;20045;-61
2023/07/10 02:54:12;;;;;;;9.20;4.88;;;;;;;22.60;59.02;100178.88;10437660;28;20505;-61
2023/07/10 02:59:14;;;;;;;8.07;4.10;;;;;;;22.61;59.00;100177.91;10451800;28;20053;-61
2023/07/10 03:04:16;;;;;;;8.75;3.78;;;;;;;22.63;58.78;100176.75;10415388;28;20041;-61
2023/07/10 03:09:18;;;;;;;5.28;3.10;;;;;;;22.67;58.71;100180.75;10428176;28;20433;-61
2023/07/10 03:14:20;;;;;;;7.93;4.22;;;;;;;22.75;58.50;100182.63;10423720;28;20040;-62
2023/07/10 03:19:22;;;;;;;6.78;3.75;;;;;;;22.73;58.46;100197.09;10424415;28;20057;-61
2023/07/10 03:24:25;;;;;;;9.27;3.72;;;;;;;22.68;58.72;100201.06;10427061;28;20044;-61
2023/07/10 03:29:27;;;;;;;7.43;4.03;;;;;;;22.56;58.79;100204.19;10426621;28;20047;-61
2023/07/10 03:34:29;;;;;;;7.35;3.90;;;;;;;22.62;58.79;100212.41;10421966;28;20037;-61
2023/07/10 03:39:31;;;;;;;7.78;3.85;;;;;;;22.70;58.64;100206.25;10413611;28;20053;-61
2023/07/10 03:44:34;;;;;;;8.48;4.30;;;;;;;22.74;58.49;100204.13;10425277;28;20397;-61
2023/07/10 03:49:36;;;;;;;13.77;6.03;;;;;;;22.74;58.39;100210.28;10426035;28;20124;-61
2023/07/10 03:54:38;;;;;;;9.23;4.78;;;;;;;22.80;58.57;100206.97;10426976;28;20059;-61
2023/07/10 03:59:40;;;;;;;11.73;5.75;;;;;;;22.77;58.37;100209.13;10424920;28;20048;-61
2023/07/10 04:04:42;;;;;;;13.65;5.95;;;;;;;22.79;58.38;100223.13;10423042;28;20094;-61
2023/07/10 04:09:44;;;;;;;11.77;5.47;;;;;;;22.77;58.61;100230.47;10426503;28;20128;-61
2023/07/10 04:14:46;;;;;;;10.73;5.50;;;;;;;22.94;58.40;100237.53;10421511;28;20052;-61
2023/07/10 04:19:48;;;;;;;13.30;5.65;;;;;;;23.01;57.90;100252.69;10423491;28;20065;-60
2023/07/10 04:24:50;;;;;;;11.45;5.47;;;;;;;23.13;57.99;100255.88;10420494;28;20312;-60
2023/07/10 04:29:52;;;;;;;11.15;5.00;;;;;;;23.15;57.87;100245.88;10425017;28;20049;-60
2023/07/10 04:34:54;;;;;;;8.07;4.60;;;;;;;23.17;57.92;100246.56;10425577;28;20047;-60
2023/07/10 04:39:56;;;;;;;9.60;4.63;;;;;;;23.25;57.65;100249.22;10424087;28;20045;-60
2023/07/10 04:44:58;;;;;;;9.88;4.95;;;;;;;23.26;57.55;100253.59;10424572;28;20059;-60
2023/07/10 04:50:00;;;;;;;12.13;5.60;;;;;;;23.34;57.44;100257.09;10425520;28;20059;-60
2023/07/10 04:55:03;;;;;;;7.70;4.00;;;;;;;23.43;57.45;100260.66;10423220;28;20378;-60
2023/07/10 05:00:06;;;;;;;9.98;5.32;;;;;;;23.46;57.32;100257.63;10422183;28;21566;-60
2023/07/10 05:05:08;;;;;;;9.65;4.80;;;;;;;23.54;56.99;100262.13;10423795;28;20041;-60
2023/07/10 05:10:10;;;;;;;11.88;5.30;;;;;;;23.50;57.08;100283.00;10422195;28;20140;-60
2023/07/10 05:15:12;;;;;;;11.60;5.65;;;;;;;23.56;57.24;100282.34;10424705;28;20091;-60
2023/07/10 05:20:14;;;;;;;12.00;6.05;;;;;;;23.65;56.68;100276.00;10423951;28;20041;-60
2023/07/10 05:25:16;;;;;;;11.05;5.30;;;;;;;23.70;56.79;100281.66;10423025;28;20493;-60
2023/07/10 05:30:18;;;;;;;10.50;4.82;;;;;;;23.65;56.97;100285.84;10424072;28;20072;-60
2023/07/10 05:35:21;;;;;;;8.52;4.55;;;;;;;23.69;56.52;100289.84;10424220;28;20053;-61
2023/07/10 05:40:22;;;;;;;8.95;4.22;;;;;;;23.63;56.64;100295.84;10424392;28;20138;-60
2023/07/10 05:45:24;;;;;;;8.25;4.70;;;;;;;23.64;56.56;100297.50;10425783;28;20072;-60
2023/07/10 05:50:26;;;;;;;7.50;4.20;;;;;;;23.61;56.69;100296.03;10424707;28;20057;-60
2023/07/10 05:55:28;;;;;;;8.70;4.72;;;;;;;23.56;56.68;100308.19;10424878;28;20040;-60
2023/07/10 06:00:30;;;;;;;9.13;4.55;;;;;;;23.46;57.16;100313.69;10429551;28;20045;-60
2023/07/10 06:05:32;;;;;;;7.53;4.20;;;;;;;23.45;57.10;100317.38;10430163;28;20067;-60
2023/07/10 06:10:35;;;;;;;9.13;4.55;;;;;;;23.72;56.55;100322.38;10432020;28;20079;-60
2023/07/10 06:15:44;;;;;;;9.20;4.80;;;;;;;23.93;56.53;100316.56;10427848;28;20111;-60
2023/07/10 06:20:52;;;;;;;10.02;4.35;;;;;;;23.78;56.74;100324.41;10414663;28;20045;-60
2023/07/10 06:25:55;;;;;;;7.80;4.55;;;;;;;23.91;56.50;100324.75;10429148;28;20048;-60
2023/07/10 06:31:03;;;;;;;8.25;4.32;;;;;;;24.16;55.96;100320.25;10429174;28;20497;-61
2023/07/10 06:36:06;;;;;;;9.82;4.80;;;;;;;24.16;55.79;100334.41;10414626;28;20517;-61
2023/07/10 06:41:10;;;;;;;8.02;3.85;;;;;;;24.00;55.88;100323.72;10429183;28;20048;-61
2023/07/10 06:46:16;;;;;;;6.57;3.65;;;;;;;23.92;55.98;100331.75;10428629;28;20115;-60
2023/07/10 06:51:18;;;;;;;7.03;3.90;;;;;;;23.90;55.72;100339.09;10427906;28;20102;-60
2023/07/10 06:56:20;;;;;;;7.15;4.03;;;;;;;23.72;56.22;100346.44;10428349;28;20059;-60
2023/07/10 07:01:22;;;;;;;12.52;4.85;;;;;;;23.33;56.89;100364.03;10427418;28;20073;-60
2023/07/10 07:06:24;;;;;;;9.95;4.63;;;;;;;23.26;56.63;100371.00;10427693;28;20846;-60
2023/07/10 07:11:26;;;;;;;11.77;4.60;;;;;;;23.22;56.61;100369.66;10414658;28;20049;-60
2023/07/10 07:16:28;;;;;;;9.38;4.40;;;;;;;23.23;56.42;100366.81;10422091;28;20535;-60
2023/07/10 07:21:30;;;;;;;10.45;4.32;;;;;;;23.35;55.72;100370.88;10419470;28;20814;-60
2023/07/10 07:26:32;;;;;;;6.65;3.55;;;;;;;23.43;55.56;100362.09;10420358;28;20051;-60
2023/07/10 07:31:37;;;;;;;8.50;4.15;;;;;;;23.77;54.78;100365.47;10423218;28;20132;-60
2023/07/10 07:36:39;;;;;;;11.50;4.75;;;;;;;24.02;53.94;100369.81;10421788;28;20126;-60
2023/07/10 07:41:42;;;;;;;8.65;4.35;;;;;;;24.33;53.08;100378.00;10422993;28;20075;-60
2023/07/10 07:46:44;;;;;;;9.45;4.50;;;;;;;24.44;52.54;100384.84;10417959;28;20093;-60
2023/07/10 07:51:46;;;;;;;8.40;4.05;;;;;;;24.06;53.04;100392.53;10420468;28;20428;-60
2023/07/10 07:56:48;;;;;;;12.82;5.55;;;;;;;23.69;53.69;100402.84;10418807;28;20064;-60
2023/07/10 08:01:50;;;;;;;14.23;6.43;;;;;;;23.69;53.90;100394.84;10421614;28;20194;-60
2023/07/10 08:06:52;;;;;;;13.85;6.22;;;;;;;23.93;53.58;100394.03;10406100;28;20048;-60
2023/07/10 08:11:54;;;;;;;13.88;6.15;;;;;;;24.06;53.34;100395.19;10416671;28;20041;-60
2023/07/10 08:16:57;;;;;;;12.10;6.13;;;;;;;24.47;52.32;100387.19;10419889;28;20060;-60
2023/07/10 08:21:59;;;;;;;13.65;5.88;;;;;;;25.63;50.61;100382.75;10418697;28;20056;-60
2023/07/10 08:27:01;;;;;;;14.25;5.18;;;;;;;26.84;47.92;100387.09;10420662;28;20061;-60
2023/07/10 08:32:03;;;;;;;9.65;4.22;;;;;;;28.06;46.29;100387.09;10417893;28;20061;-60
2023/07/10 08:37:05;;;;;;;9.00;4.30;;;;;;;27.65;46.05;100389.56;10420271;28;20040;-60
2023/07/10 08:42:19;;;;;;;8.75;4.25;;;;;;;27.27;44.70;100394.31;10411345;28;20930;-61
2023/07/10 08:47:46;;;;;;;8.57;3.70;;;;;;;27.99;43.50;100399.66;10399463;28;20044;-60
2023/07/10 08:52:57;;;;;;;8.10;4.45;;;;;;;27.09;45.70;100396.53;10411858;28;20631;-62
2023/07/10 08:58:02;;;;;;;7.45;4.00;;;;;;;26.59;46.25;100404.47;10402130;28;20158;-60
2023/07/10 09:03:18;;;;;;;9.88;4.38;;;;;;;26.55;46.12;100404.00;10405115;28;20140;-60
2023/07/10 09:08:21;;;;;;;6.90;3.55;;;;;;;26.61;46.31;100394.38;10413886;28;20048;-61
2023/07/10 09:13:38;;;;;;;9.73;4.32;;;;;;;26.93;45.52;100396.72;10411678;28;20072;-61
2023/07/10 09:18:49;;;;;;;7.22;4.07;;;;;;;26.67;45.40;100407.91;10419016;28;20505;-61
2023/07/10 09:23:51;;;;;;;7.13;3.70;;;;;;;27.04;45.29;100412.34;10416030;28;20156;-60
2023/07/10 09:29:10;;;;;;;6.63;3.13;;;;;;;26.92;44.82;100411.16;10422315;28;20134;-61
2023/07/10 09:34:12;;;;;;;6.87;3.03;;;;;;;27.02;44.07;100409.00;10422571;28;20915;-61
2023/07/10 09:39:16;;;;;;;6.60;3.13;;;;;;;27.19;44.10;100409.69;10422259;28;20955;-61
2023/07/10 09:44:22;;;;;;;6.05;3.17;;;;;;;27.33;43.90;100400.78;10414448;28;20076;-60
2023/07/10 09:49:40;;;;;;;7.90;3.45;;;;;;;27.54;43.35;100400.81;10412443;28;20083;-60
2023/07/10 09:54:42;;;;;;;5.32;3.05;;;;;;;28.95;41.99;100381.78;10411714;28;20556;-61
2023/07/10 09:59:50;;;;;;;6.28;2.63;;;;;;;29.52;40.25;100367.94;10409599;28;20060;-60
2023/07/10 10:05:21;;;;;;;7.10;2.73;;;;;;;28.65;41.05;100387.59;10406941;28;20509;-61
2023/07/10 10:10:29;;;;;;;3.58;2.22;;;;;;;28.48;41.24;100379.00;10398085;28;20049;-60
2023/07/10 10:15:53;;;;;;;4.85;2.78;;;;;;;28.08;41.61;100376.97;10412771;28;20045;-60
2023/07/10 10:20:56;;;;;;;4.32;2.22;;;;;;;27.49;42.71;100366.47;10424555;28;20493;-60
2023/07/10 10:26:25;;;;;;;5.70;2.40;;;;;;;27.39;42.91;100365.09;10419194;28;20167;-61
2023/07/10 10:31:37;;;;;;;5.10;2.33;;;;;;;27.23;42.56;100374.22;10424175;28;20139;-61
2023/07/10 10:37:12;;;;;;;4.68;2.30;;;;;;;26.97;43.50;100365.81;10416540;28;20119;-61
2023/07/10 10:42:49;;;;;;;6.45;2.72;;;;;;;26.79;43.79;100368.03;10416727;28;20041;-60
2023/07/10 10:48:18;;;;;;;5.68;2.47;;;;;;;27.83;42.48;100365.78;10422352;28;20048;-61
2023/07/10 10:53:30;;;;;;;6.10;2.38;;;;;;;28.07;41.49;100359.19;10421372;28;20052;-61
2023/07/10 10:58:44;;;;;;;6.72;2.70;;;;;;;27.71;42.15;100358.44;10419123;28;20045;-61
2023/07/10 11:03:52;;;;;;;5.55;2.20;;;;;;;27.89;42.15;100340.81;10418867;28;20059;-61
2023/07/10 11:08:59;;;;;;;4.10;2.50;;;;;;;28.12;41.60;100354.06;10420636;28;20102;-61
2023/07/10 11:14:03;;;;;;;3.97;1.85;;;;;;;28.50;40.53;100350.06;10414708;28;20069;-62
2023/07/10 11:19:08;;;;;;;3.65;2.00;;;;;;;28.80;40.01;100348.78;10416495;28;20083;-62
2023/07/10 11:24:16;;;;;;;4.03;1.95;;;;;;;29.00;38.69;100338.13;10417686;28;20098;-61
2023/07/10 11:29:18;;;;;;;2.95;1.77;;;;;;;28.64;39.64;100332.09;10423566;28;20048;-61
2023/07/10 11:34:23;;;;;;;5.65;1.90;;;;;;;28.82;39.31;100333.25;10416185;28;20124;-61
2023/07/10 11:39:36;;;;;;;2.72;1.80;;;;;;;28.87;38.52;100320.03;10420789;28;20139;-61
2023/07/10 11:44:41;;;;;;;2.78;1.40;;;;;;;28.93;38.80;100323.81;10418987;28;20040;-61
2023/07/10 11:49:45;;;;;;;3.00;1.67;;;;;;;29.32;37.97;100315.00;10413700;28;20051;-61
2023/07/10 11:54:47;;;;;;;9.57;4.22;;;;;;;29.09;37.35;100313.50;10414212;28;20053;-61
2023/07/10 11:59:51;;;;;;;3.63;1.95;;;;;;;29.08;36.31;100306.47;10414695;28;20428;-61
2023/07/10 12:04:53;;;;;;;3.60;1.70;;;;;;;28.86;36.44;100298.69;10414458;28;20049;-61
2023/07/10 12:09:58;;;;;;;3.30;1.60;;;;;;;28.86;36.54;100315.69;10413962;28;20045;-61
2023/07/10 12:15:02;;;;;;;2.95;1.52;;;;;;;28.93;35.48;100303.06;10417675;28;20049;-61
2023/07/10 12:20:24;;;;;;;3.13;1.42;;;;;;;29.19;34.09;100296.13;10407666;28;20059;-61
2023/07/10 12:25:27;;;;;;;3.20;1.60;;;;;;;29.42;35.15;100292.06;10416772;28;20064;-61
2023/07/10 12:30:30;;;;;;;3.90;1.60;;;;;;;30.05;34.42;100281.75;10415978;28;20061;-61
2023/07/10 12:35:36;;;;;;;5.55;1.65;;;;;;;30.00;33.24;100278.84;10414957;28;20083;-61
2023/07/10 12:40:38;;;;;;;8.10;1.55;;;;;;;29.84;34.47;100275.53;10417618;28;20056;-61
2023/07/10 12:45:41;;;;;;;3.72;1.50;;;;;;;29.87;34.38;100283.19;10415425;28;20049;-61
2023/07/10 12:50:47;;;;;;;3.20;1.63;;;;;;;30.13;33.82;100281.53;10420294;28;20049;-61
2023/07/10 12:55:57;;;;;;;3.03;1.73;;;;;;;30.00;34.49;100274.28;10413071;28;20053;-61
2023/07/10 13:01:27;;;;;;;3.38;1.80;;;;;;;29.25;34.80;100268.38;10416535;28;20710;-61
2023/07/10 13:06:30;;;;;;;;;;;;;;;28.60;35.68;100269.78;10412980;28;20052;-61
2023/07/10 13:11:32;;;;;;;3.05;1.50;;;;;;;28.84;36.18;100271.13;10421230;28;19935;-61
2023/07/10 13:16:44;;;;;;;1.75;1.25;;;;;;;29.04;35.63;100264.81;10418969;28;20095;-60
2023/07/10 13:21:46;;;;;;;5.53;1.40;;;;;;;29.01;35.10;100267.88;10423213;28;20140;-59
2023/07/10 13:26:51;;;;;;;2.20;1.38;;;;;;;29.21;35.30;100257.19;10423719;28;20049;-59
2023/07/10 13:31:53;;;;;;;3.97;1.67;;;;;;;29.31;34.95;100246.84;10426904;28;20052;-58
2023/07/10 13:36:55;;;;;;;3.65;1.60;;;;;;;29.42;34.50;100250.81;10427613;28;21003;-59
2023/07/10 13:41:57;;;;;;;2.45;1.45;;;;;;;29.80;33.92;100230.31;10416763;28;20043;-58
2023/07/10 13:46:59;;;;;;;2.63;1.50;;;;;;;29.41;33.49;100241.06;10424944;28;20139;-58
2023/07/10 13:52:01;;;;;;;2.90;1.50;;;;;;;29.31;33.99;100246.84;10422990;28;20341;-59
2023/07/10 13:57:21;;;;;;;6.05;1.60;;;;;;;29.24;33.57;100232.50;10422907;28;20069;-59
2023/07/10 14:02:34;;;;;;;3.67;1.60;;;;;;;29.28;33.63;100230.22;10419552;28;20052;-59
2023/07/10 14:07:38;;;;;;;3.60;1.58;;;;;;;29.07;33.67;100225.88;10419847;28;20115;-59
2023/07/10 14:12:40;;;;;;;1.88;1.17;;;;;;;29.47;33.46;100234.84;10404821;28;20139;-59
2023/07/10 14:17:42;;;;;;;3.45;1.30;;;;;;;29.75;33.26;100222.84;10420117;28;20122;-59
2023/07/10 14:22:44;;;;;;;3.30;1.20;;;;;;;29.48;33.41;100220.34;10417844;28;20056;-59
2023/07/10 14:27:47;;;;;;;5.00;1.33;;;;;;;29.32;34.23;100228.78;10421378;28;20064;-59
2023/07/10 14:32:49;;;;;;;3.13;1.58;;;;;;;29.27;33.93;100228.59;10419235;28;20049;-59
2023/07/10 14:37:51;;;;;;;5.72;1.45;;;;;;;29.04;34.12;100235.19;10422050;28;20048;-59
2023/07/10 14:42:53;;;;;;;2.08;1.27;;;;;;;28.83;34.24;100229.06;10418756;28;20064;-58
2023/07/10 14:47:56;;;;;;;1.73;1.20;;;;;;;29.02;34.09;100233.72;10420844;28;20061;-59
2023/07/10 14:52:58;;;;;;;2.75;1.40;;;;;;;28.86;34.03;100232.22;10418446;28;20064;-58
2023/07/10 14:58:00;;;;;;;2.67;1.38;;;;;;;28.78;33.81;100235.06;10423827;28;20228;-59
2023/07/10 15:03:02;;;;;;;22.20;2.58;;;;;;;29.01;33.90;100232.88;10416765;28;20044;-61
2023/07/10 15:08:05;;;;;;;1.92;1.10;;;;;;;29.51;33.12;100219.94;10423385;28;20041;-61
2023/07/10 15:13:16;;;;;;;3.67;1.27;;;;;;;29.60;32.26;100218.69;10412458;28;20501;-62
2023/07/10 15:18:23;;;;;;;12.40;1.65;;;;;;;29.56;32.47;100214.75;10405695;28;20052;-62
2023/07/10 15:23:30;;;;;;;13.23;1.52;;;;;;;29.60;32.63;100224.91;10416775;28;20048;-62
2023/07/10 15:28:32;;;;;;;35.15;4.68;;;;;;;29.63;32.66;100211.03;10419111;28;21173;-62
2023/07/10 15:33:36;;;;;;;6.20;1.95;;;;;;;29.47;32.48;100202.50;10414794;28;20119;-61
2023/07/10 15:38:38;;;;;;;5.15;2.13;;;;;;;29.26;32.34;100198.13;10418760;28;20144;-61
2023/07/10 15:43:44;;;;;;;4.43;1.20;;;;;;;29.48;32.19;100194.22;10412071;28;20138;-61
2023/07/10 15:48:46;;;;;;;2.00;1.00;;;;;;;29.30;31.93;100190.44;10418423;28;20563;-62
2023/07/10 15:53:48;;;;;;;6.88;1.38;;;;;;;29.03;32.29;100189.59;10407817;28;20626;-62
2023/07/10 15:58:50;;;;;;;19.88;1.83;;;;;;;29.05;32.31;100185.66;10418499;28;20051;-62
2023/07/10 16:03:52;;;;;;;6.15;1.88;;;;;;;29.25;31.48;100179.47;10413635;28;20359;-61
2023/07/10 16:08:54;;;;;;;3.20;1.05;;;;;;;29.31;31.83;100181.34;10416781;28;20183;-61
2023/07/10 16:13:58;;;;;;;6.32;1.80;;;;;;;29.11;31.86;100178.63;10407459;28;20048;-61
2023/07/10 16:19:00;;;;;;;9.85;2.20;;;;;;;28.87;32.26;100174.63;10400357;28;20112;-62
2023/07/10 16:24:14;;;;;;;49.38;6.97;;;;;;;28.93;31.37;100173.81;10410637;28;20441;-62
2023/07/10 16:29:19;;;;;;;21.63;3.63;;;;;;;28.69;31.51;100171.66;10417727;28;20044;-61
2023/07/10 16:34:22;;;;;;;5.00;1.55;;;;;;;28.60;31.96;100172.91;10415615;28;20560;-61
2023/07/10 16:39:28;;;;;;;2.03;0.70;;;;;;;28.57;31.78;100173.28;10416667;28;20048;-61
2023/07/10 16:44:30;;;;;;;3.58;1.25;;;;;;;28.26;32.25;100168.38;10411954;28;20509;-62
2023/07/10 16:49:33;;;;;;;1.27;0.85;;;;;;;28.41;32.02;100175.50;10417455;28;20126;-62
2023/07/10 16:54:36;;;;;;;1.65;0.95;;;;;;;28.18;32.22;100173.06;10409827;28;20051;-62
2023/07/10 16:59:38;;;;;;;2.47;1.00;;;;;;;28.25;32.32;100173.94;10413497;28;20044;-61
2023/07/10 17:04:40;;;;;;;1.95;1.08;;;;;;;28.26;32.00;100173.75;10426740;28;20523;-62
2023/07/10 17:09:42;;;;;;;11.75;1.83;;;;;;;28.38;32.28;100175.91;10414630;28;20039;-63
2023/07/10 17:14:44;;;;;;;1.70;0.80;;;;;;;28.20;32.42;100182.63;10407774;28;20360;-63
2023/07/10 17:19:47;;;;;;;1.13;0.77;;;;;;;28.19;32.63;100180.13;10416812;28;20118;-62
2023/07/10 17:24:52;;;;;;;1.52;0.90;;;;;;;28.16;32.58;100175.97;10409194;28;20045;-62
2023/07/10 17:29:54;;;;;;;1.27;0.75;;;;;;;28.09;32.51;100171.59;10417950;28;20045;-63
2023/07/10 17:34:56;;;;;;;0.77;0.70;;;;;;;27.91;32.48;100168.59;10415094;28;20107;-62
2023/07/10 17:39:58;;;;;;;1.15;0.60;;;;;;;27.79;32.69;100167.50;10414452;28;20452;-62
2023/07/10 17:45:00;;;;;;;1.83;0.93;;;;;;;27.77;32.80;100161.47;10403673;28;20052;-62
2023/07/10 17:50:02;;;;;;;1.15;0.80;;;;;;;27.76;32.93;100167.88;10405600;28;20056;-62
2023/07/10 17:55:05;;;;;;;1.23;0.82;;;;;;;27.38;33.37;100168.16;10408644;28;20033;-62
2023/07/10 18:00:08;;;;;;;1.38;0.80;;;;;;;27.34;33.33;100174.94;10421352;28;20052;-62
2023/07/10 18:05:19;;;;;;;2.28;0.85;;;;;;;27.22;33.35;100173.00;10423565;28;20071;-62
2023/07/10 18:10:25;;;;;;;2.08;0.90;;;;;;;27.07;33.70;100167.66;10416234;28;20561;-62
2023/07/10 18:15:28;;;;;;;2.20;0.85;;;;;;;26.94;33.76;100178.25;10419717;28;20518;-62
2023/07/10 18:20:30;;;;;;;1.05;0.68;;;;;;;26.85;34.14;100175.91;10427126;28;20148;-62
2023/07/10 18:25:32;;;;;;;1.08;0.75;;;;;;;26.81;34.06;100170.09;10423379;28;20045;-62
2023/07/10 18:30:34;;;;;;;3.28;1.20;;;;;;;26.72;34.06;100170.38;10427900;28;20132;-62
2023/07/10 18:35:36;;;;;;;1.80;1.00;;;;;;;26.75;34.21;100170.00;10430781;28;20055;-62
2023/07/10 18:40:39;;;;;;;0.95;0.70;;;;;;;26.66;34.50;100169.28;10427704;28;20298;-62
2023/07/10 18:45:42;;;;;;;0.93;0.73;;;;;;;26.51;34.78;100181.88;10428570;28;20044;-62
2023/07/10 18:50:45;;;;;;;1.20;0.82;;;;;;;26.32;35.11;100175.22;10426146;28;20443;-61
2023/07/10 18:55:47;;;;;;;1.48;0.90;;;;;;;26.23;35.62;100184.41;10410315;28;20064;-61
2023/07/10 19:00:50;;;;;;;17.33;3.20;;;;;;;25.92;36.07;100185.59;10427763;28;20053;-61
2023/07/10 19:05:53;;;;;;;15.38;3.13;;;;;;;25.64;37.63;100182.69;10429323;28;20126;-61
2023/07/10 19:10:58;;;;;;;6.57;2.35;;;;;;;25.50;39.01;100184.31;10425462;28;20056;-62
2023/07/10 19:16:02;;;;;;;2.67;1.40;;;;;;;25.29;38.68;100188.66;10427957;28;20056;-62
2023/07/10 19:21:04;;;;;;;2.88;1.20;;;;;;;25.05;39.05;100189.69;10428239;28;20102;-61
2023/07/10 19:26:07;;;;;;;2.25;0.90;;;;;;;24.83;39.81;100194.00;10427396;28;20635;-61
2023/07/10 19:31:12;;;;;;;1.23;0.90;;;;;;;24.67;40.45;100201.25;10425210;28;20053;-58
2023/07/10 19:36:20;;;;;;;0.80;0.80;;;;;;;24.51;41.33;100204.03;10425849;28;20059;-58
2023/07/10 19:41:22;;;;;;;1.65;0.88;;;;;;;24.39;41.13;100205.41;10425100;28;20493;-59
2023/07/10 19:46:25;;;;;;;1.80;0.98;;;;;;;24.21;41.49;100206.47;10426821;28;20963;-59
2023/07/10 19:51:27;;;;;;;2.72;1.63;;;;;;;24.03;41.93;100208.50;10426401;28;20055;-58
2023/07/10 19:56:29;;;;;;;1.60;1.17;;;;;;;23.78;42.45;100209.53;10424940;28;20045;-58
2023/07/10 20:01:31;;;;;;;1.65;1.10;;;;;;;23.48;43.05;100215.59;10426523;28;20501;-58
2023/07/10 20:06:34;;;;;;;1.65;1.00;;;;;;;23.29;43.35;100222.06;10425313;28;20072;-58
2023/07/10 20:11:36;;;;;;;2.08;1.10;;;;;;;23.24;43.36;100220.88;10437655;28;20039;-58
2023/07/10 20:16:39;;;;;;;3.00;1.00;;;;;;;23.20;43.71;100227.56;10422560;28;20059;-58
2023/07/10 20:21:41;;;;;;;2.05;1.20;;;;;;;23.11;43.96;100223.19;10423070;28;20106;-58
2023/07/10 20:26:44;;;;;;;3.63;1.45;;;;;;;22.88;44.34;100224.84;10411014;28;20052;-58
2023/07/10 20:31:47;;;;;;;1.63;0.98;;;;;;;22.58;44.99;100205.72;10423775;28;20265;-58
2023/07/10 20:36:50;;;;;;;1.00;0.85;;;;;;;22.48;45.33;100215.69;10424704;28;20476;-58
2023/07/10 20:41:55;;;;;;;1.58;1.00;;;;;;;22.44;45.40;100219.66;10421732;28;20148;-58
2023/07/10 20:46:58;;;;;;;1.02;0.80;;;;;;;22.34;45.46;100218.09;10420636;28;20313;-58
2023/07/10 20:52:00;;;;;;;2.63;1.08;;;;;;;22.17;45.72;100225.19;10422694;28;20052;-58
2023/07/10 20:57:05;;;;;;;2.15;0.90;;;;;;;22.10;45.86;100223.31;10419378;28;20079;-58
2023/07/10 21:02:19;;;;;;;1.50;0.95;;;;;;;22.00;47.03;100219.91;10422006;28;20453;-58
2023/07/10 21:07:21;;;;;;;2.03;1.00;;;;;;;21.84;46.51;100205.47;10414210;28;20056;-58
2023/07/10 21:12:23;;;;;;;2.05;1.10;;;;;;;21.66;46.81;100206.53;10422703;28;20083;-58
2023/07/10 21:17:29;;;;;;;2.28;1.00;;;;;;;21.57;47.12;100210.13;10423611;28;20461;-58
2023/07/10 21:22:31;;;;;;;1.60;1.00;;;;;;;21.50;47.04;100211.72;10424904;28;20583;-58
2023/07/10 21:27:33;;;;;;;1.27;0.90;;;;;;;21.44;47.10;100210.53;10398020;28;20055;-58
2023/07/10 21:32:35;;;;;;;1.75;1.05;;;;;;;21.35;47.21;100197.31;10432159;28;20052;-58
2023/07/10 21:37:37;;;;;;;1.95;1.08;;;;;;;21.18;47.75;100198.13;10429602;28;20163;-58
2023/07/10 21:42:39;;;;;;;4.25;1.20;;;;;;;21.08;47.97;100199.06;10431735;28;20053;-58
2023/07/10 21:47:41;;;;;;;2.55;1.10;;;;;;;20.99;48.09;100201.75;10429833;28;20073;-58
2023/07/10 21:52:43;;;;;;;1.25;0.93;;;;;;;20.82;48.35;100195.47;10431987;28;20056;-58
2023/07/10 21:57:45;;;;;;;3.13;1.30;;;;;;;20.80;48.65;100191.28;10430413;28;20053;-57
2023/07/10 22:02:47;;;;;;;2.67;1.00;;;;;;;20.76;48.94;100189.91;10431158;28;20144;-58
2023/07/10 22:07:49;;;;;;;2.00;1.17;;;;;;;20.54;49.43;100195.63;10432309;28;20045;-57
2023/07/10 22:12:52;;;;;;;1.30;1.00;;;;;;;20.37;49.84;100196.41;10427459;28;20078;-57
2023/07/10 22:17:53;;;;;;;2.78;1.15;;;;;;;20.27;49.91;100188.50;10430193;28;20045;-58
2023/07/10 22:22:56;;;;;;;1.52;1.00;;;;;;;20.18;50.37;100181.38;10429521;28;20663;-58
2023/07/10 22:27:57;;;;;;;2.05;1.20;;;;;;;20.14;50.32;100180.84;10427701;28;20048;-58
2023/07/10 22:33:01;;;;;;;1.55;0.90;;;;;;;20.09;50.35;100180.44;10431469;28;20045;-56
2023/07/10 22:38:04;;;;;;;3.45;0.93;;;;;;;20.02;50.48;100176.72;10428240;28;20055;-58
2023/07/10 22:43:11;;;;;;;1.10;1.00;;;;;;;19.94;51.28;100175.75;10427251;28;20048;-58
2023/07/10 22:48:14;;;;;;;1.90;0.93;;;;;;;19.85;50.87;100171.31;10429718;28;20055;-58
2023/07/10 22:53:20;;;;;;;3.28;1.23;;;;;;;19.69;51.24;100161.28;10429869;28;20484;-58
2023/07/10 22:58:22;;;;;;;1.58;1.10;;;;;;;19.38;51.75;100176.56;10428076;28;20091;-58
2023/07/10 23:03:25;;;;;;;2.97;1.20;;;;;;;18.91;52.43;100174.72;10429500;28;20056;-58
2023/07/10 23:08:27;;;;;;;2.25;1.10;;;;;;;18.86;52.66;100184.91;10429297;28;20047;-58
2023/07/10 23:13:29;;;;;;;1.35;1.00;;;;;;;19.02;52.46;100182.59;10426039;28;20497;-56
2023/07/10 23:18:35;;;;;;;2.58;1.30;;;;;;;19.09;52.79;100178.41;10429343;28;20048;-58